Time;durP1;ratioP1;P1;durP2;ratioP2;P2;SDS_P1;SDS_P2;PMS_P1;PMS_P2;Temp;Humidity;BMP_temperature;BMP_pressure;BME280_temperature;BME280_humidity;BME280_pressure;Samples;Min_cycle;Max_cycle;Signal;HPM_P1;HPM_P2
2021/06/08 00:00:23;;;;;;;8.73;7.93;;;21.90;94.60;;;;;;4988767;28;20608;-80
2021/06/08 00:02:51;;;;;;;8.05;7.35;;;21.90;94.60;;;;;;4988861;28;20203;-79
2021/06/08 00:05:17;;;;;;;8.93;8.02;;;21.90;94.70;;;;;;4988408;28;20213;-80
2021/06/08 00:07:44;;;;;;;8.63;7.82;;;21.80;94.80;;;;;;4988381;28;20297;-80
2021/06/08 00:10:11;;;;;;;8.60;7.90;;;21.80;94.90;;;;;;4988565;28;20245;-79
2021/06/08 00:12:37;;;;;;;8.02;7.43;;;21.70;95.00;;;;;;4988129;28;20210;-79
2021/06/08 00:15:06;;;;;;;8.88;8.07;;;21.70;95.10;;;;;;4987150;28;20253;-75
2021/06/08 00:17:32;;;;;;;8.57;7.77;;;21.60;95.20;;;;;;4987438;28;20680;-74
2021/06/08 00:20:00;;;;;;;8.30;7.50;;;21.60;95.30;;;;;;4988005;28;20259;-74
2021/06/08 00:22:27;;;;;;;8.77;8.00;;;21.60;95.40;;;;;;4988081;28;20210;-73
2021/06/08 00:24:53;;;;;;;8.35;7.60;;;21.50;95.50;;;;;;4987582;28;20683;-74
2021/06/08 00:27:20;;;;;;;8.52;7.88;;;21.50;95.70;;;;;;4987996;28;20211;-74
2021/06/08 00:29:46;;;;;;;9.27;8.20;;;21.40;95.60;;;;;;4987412;28;20214;-74
2021/06/08 00:32:12;;;;;;;8.70;8.00;;;21.40;95.70;;;;;;4987697;28;20202;-73
2021/06/08 00:34:38;;;;;;;9.15;8.35;;;21.30;95.80;;;;;;4987622;28;20214;-74
2021/06/08 00:37:06;;;;;;;8.90;8.20;;;21.30;96.00;;;;;;4987491;28;20230;-73
2021/06/08 00:39:32;;;;;;;8.35;7.75;;;21.30;96.10;;;;;;4987470;28;20210;-75
2021/06/08 00:41:58;;;;;;;9.13;8.35;;;21.20;96.40;;;;;;4987698;28;20236;-74
2021/06/08 00:44:24;;;;;;;9.00;8.30;;;21.20;96.70;;;;;;4987564;28;20226;-73
2021/06/08 00:46:50;;;;;;;8.43;7.72;;;21.20;96.90;;;;;;4987127;28;20246;-75
2021/06/08 00:49:17;;;;;;;11.90;8.15;;;21.20;96.90;;;;;;4987885;28;20210;-75
2021/06/08 00:51:43;;;;;;;8.35;7.60;;;21.10;96.80;;;;;;4987191;28;20210;-76
2021/06/08 00:54:11;;;;;;;8.47;7.67;;;21.10;96.80;;;;;;4987172;28;20569;-76
2021/06/08 00:56:39;;;;;;;8.37;7.77;;;21.10;96.80;;;;;;4987249;28;20210;-76
2021/06/08 00:59:06;;;;;;;8.47;7.87;;;21.10;96.70;;;;;;4987505;28;20241;-75
2021/06/08 01:01:32;;;;;;;8.27;7.57;;;21.10;96.60;;;;;;4987378;28;20213;-76
2021/06/08 01:03:59;;;;;;;8.40;7.80;;;21.00;96.60;;;;;;4987495;28;20210;-76
2021/06/08 02:07:52;;;;;;;7.27;6.77;;;20.50;97.40;;;;;;3543057;28;20226;-75
2021/06/08 02:10:31;;;;;;;7.93;7.37;;;20.50;97.50;;;;;;4986496;28;20256;-74
2021/06/08 02:13:09;;;;;;;7.77;7.17;;;20.50;97.40;;;;;;4986439;28;20190;-75
2021/06/08 02:15:41;;;;;;;8.70;7.87;;;20.50;97.30;;;;;;4986185;28;20669;-75
2021/06/08 02:18:10;;;;;;;8.20;7.40;;;20.40;97.10;;;;;;4986262;28;20242;-74
2021/06/08 02:20:38;;;;;;;7.47;6.97;;;20.40;97.10;;;;;;4986182;28;20214;-74
2021/06/08 02:23:08;;;;;;;7.30;6.70;;;20.40;97.00;;;;;;4986338;28;20244;-74
2021/06/08 02:25:36;;;;;;;8.27;7.27;;;20.40;96.90;;;;;;4986325;28;20206;-74
2021/06/08 02:28:10;;;;;;;8.07;7.33;;;20.40;96.80;;;;;;4986226;28;20217;-74
2021/06/08 02:30:37;;;;;;;6.83;6.17;;;20.40;96.90;;;;;;4986396;28;20539;-74
2021/06/08 02:33:05;;;;;;;7.87;7.27;;;20.40;96.90;;;;;;4986105;28;20237;-74
2021/06/08 02:35:32;;;;;;;9.43;7.00;;;20.40;97.00;;;;;;4986220;28;20221;-75
2021/06/08 02:38:01;;;;;;;7.70;7.10;;;20.40;96.90;;;;;;4988299;28;20240;-74
2021/06/08 02:40:28;;;;;;;6.93;6.33;;;20.40;96.90;;;;;;4989232;28;20716;-74
2021/06/08 02:42:55;;;;;;;7.80;7.20;;;20.40;96.80;;;;;;4989382;28;20238;-74
2021/06/08 02:45:22;;;;;;;6.90;6.30;;;20.40;96.70;;;;;;4989396;28;20206;-74
2021/06/08 02:47:51;;;;;;;7.23;6.63;;;20.40;96.70;;;;;;4989530;28;20227;-74
2021/06/08 02:50:20;;;;;;;6.57;6.07;;;20.40;96.60;;;;;;4989319;28;20210;-74
2021/06/08 02:52:47;;;;;;;6.50;5.90;;;20.40;96.30;;;;;;4989460;28;20290;-75
2021/06/08 02:55:14;;;;;;;6.40;5.90;;;20.50;96.00;;;;;;4989020;28;20668;-75
2021/06/08 02:57:41;;;;;;;6.10;5.53;;;20.50;95.60;;;;;;4989404;28;20268;-75
2021/06/08 03:00:09;;;;;;;6.03;5.63;;;20.50;95.40;;;;;;4989330;28;20202;-75
2021/06/08 03:02:41;;;;;;;6.60;5.47;;;20.50;95.20;;;;;;4989511;28;20206;-76
2021/06/08 03:05:12;;;;;;;5.43;5.03;;;20.50;95.10;;;;;;4988353;28;20222;-72
2021/06/08 03:07:40;;;;;;;6.13;5.53;;;20.50;94.90;;;;;;4988912;28;20202;-73
2021/06/08 03:10:10;;;;;;;5.30;5.00;;;20.50;94.60;;;;;;4988136;28;20276;-72
2021/06/08 03:12:44;;;;;;;6.20;5.13;;;20.50;94.70;;;;;;4988770;28;20194;-73
2021/06/08 03:15:14;;;;;;;5.80;5.30;;;20.40;94.70;;;;;;4988372;28;20191;-74
2021/06/08 03:17:44;;;;;;;6.07;5.67;;;20.50;94.70;;;;;;4988511;28;20221;-74
2021/06/08 03:20:18;;;;;;;5.60;5.20;;;20.40;94.40;;;;;;4983119;28;20206;-74
2021/06/08 03:22:47;;;;;;;6.73;5.53;;;20.40;94.20;;;;;;4982717;28;20833;-74
2021/06/08 03:25:16;;;;;;;6.17;5.60;;;20.40;94.30;;;;;;4984629;28;20259;-73
2021/06/08 03:27:44;;;;;;;5.70;5.20;;;20.40;94.30;;;;;;4985220;28;20214;-74
2021/06/08 03:30:13;;;;;;;5.77;5.43;;;20.40;94.30;;;;;;4985084;28;20213;-74
2021/06/08 03:32:40;;;;;;;7.47;5.10;;;20.40;94.30;;;;;;4984795;28;20680;-73
2021/06/08 03:35:09;;;;;;;5.67;5.10;;;20.40;94.60;;;;;;4984788;28;20210;-79
2021/06/08 03:37:36;;;;;;;5.50;5.10;;;20.40;94.30;;;;;;4984809;28;20230;-77
2021/06/08 03:40:04;;;;;;;5.47;5.03;;;20.40;94.40;;;;;;4984321;28;20696;-78
2021/06/08 03:42:31;;;;;;;6.00;5.50;;;20.40;94.30;;;;;;4984777;28;20211;-74
2021/06/08 03:44:57;;;;;;;5.67;5.27;;;20.40;94.40;;;;;;4984770;28;20206;-74
2021/06/08 03:47:25;;;;;;;5.97;5.47;;;20.40;94.70;;;;;;4984984;28;20582;-74
2021/06/08 03:49:55;;;;;;;6.63;6.13;;;20.40;95.00;;;;;;4985005;28;20217;-74
2021/06/08 03:52:21;;;;;;;6.40;5.90;;;20.40;95.20;;;;;;4984787;28;20216;-74
2021/06/08 03:54:47;;;;;;;7.00;6.20;;;20.40;95.30;;;;;;4985021;28;20355;-74
2021/06/08 03:57:14;;;;;;;6.40;6.00;;;20.40;95.40;;;;;;4984738;28;20229;-74
2021/06/08 03:59:41;;;;;;;6.47;5.90;;;20.40;95.50;;;;;;4983122;28;20214;-74
2021/06/08 04:02:07;;;;;;;72.70;10.80;;;20.40;95.50;;;;;;4984781;28;20206;-73
2021/06/08 04:04:35;;;;;;;16.77;6.33;;;20.40;95.40;;;;;;4987712;28;20644;-73
2021/06/08 04:07:02;;;;;;;8.27;6.30;;;20.40;95.40;;;;;;4988227;28;20214;-74
2021/06/08 04:09:28;;;;;;;19.67;7.33;;;20.30;95.40;;;;;;4986216;28;20595;-74
2021/06/08 04:11:56;;;;;;;9.60;6.80;;;20.30;95.60;;;;;;4986977;28;20259;-74
2021/06/08 04:14:23;;;;;;;7.23;6.70;;;20.40;95.70;;;;;;4986953;28;20234;-74
2021/06/08 04:16:49;;;;;;;8.63;6.30;;;20.30;95.70;;;;;;4987069;28;20206;-74
2021/06/08 04:19:16;;;;;;;6.13;5.73;;;20.40;95.80;;;;;;4986499;28;20222;-74
2021/06/08 04:21:44;;;;;;;7.33;6.10;;;20.40;95.40;;;;;;4986500;28;20206;-74
2021/06/08 04:24:11;;;;;;;7.07;6.47;;;20.40;94.80;;;;;;4983909;28;20232;-74
2021/06/08 04:26:37;;;;;;;6.63;6.17;;;20.30;94.40;;;;;;4986544;28;20214;-74
2021/06/08 04:29:04;;;;;;;8.00;6.53;;;20.20;94.60;;;;;;4985899;28;20699;-74
2021/06/08 04:31:31;;;;;;;6.63;6.13;;;20.30;94.70;;;;;;4986800;28;20256;-74
2021/06/08 04:33:57;;;;;;;13.20;6.57;;;20.30;94.80;;;;;;4985996;28;20206;-74
2021/06/08 04:36:24;;;;;;;7.00;6.40;;;20.30;94.90;;;;;;4986180;28;20205;-74
2021/06/08 04:38:53;;;;;;;7.87;7.20;;;20.30;95.00;;;;;;4986283;28;20230;-75
2021/06/08 04:41:19;;;;;;;6.70;6.20;;;20.30;95.10;;;;;;4985789;28;20769;-74
2021/06/08 04:43:46;;;;;;;7.53;6.93;;;20.20;95.10;;;;;;4986443;28;20203;-74
2021/06/08 04:46:13;;;;;;;8.57;6.97;;;20.20;95.10;;;;;;4986451;28;20203;-74
2021/06/08 04:48:41;;;;;;;6.87;6.30;;;20.20;95.20;;;;;;4986599;28;20198;-74
2021/06/08 04:51:07;;;;;;;7.63;6.93;;;20.20;95.30;;;;;;4986225;28;20230;-74
2021/06/08 04:53:33;;;;;;;6.53;6.03;;;20.20;95.40;;;;;;4986304;28;20732;-74
2021/06/08 04:56:01;;;;;;;7.17;6.57;;;20.20;95.50;;;;;;4986071;28;20211;-74
2021/06/08 04:58:27;;;;;;;8.30;7.27;;;20.20;95.60;;;;;;4986158;28;20237;-74
2021/06/08 05:00:59;;;;;;;6.60;6.17;;;20.20;95.80;;;;;;4985440;28;20203;-74
2021/06/08 05:03:31;;;;;;;7.53;7.00;;;20.20;95.90;;;;;;4986406;28;20206;-74
2021/06/08 05:05:59;;;;;;;7.43;6.83;;;20.20;95.90;;;;;;4985670;28;20315;-74
2021/06/08 05:08:33;;;;;;;6.97;6.27;;;20.20;95.90;;;;;;4985416;28;20663;-74
2021/06/08 05:11:08;;;;;;;7.27;6.33;;;20.20;96.00;;;;;;4985784;28;20194;-75
2021/06/08 05:13:36;;;;;;;7.30;6.60;;;20.40;96.10;;;;;;4985893;28;20202;-75
2021/06/08 05:16:05;;;;;;;7.60;6.83;;;20.40;96.10;;;;;;4985953;28;20202;-75
2021/06/08 05:18:31;;;;;;;7.40;6.73;;;20.50;96.10;;;;;;4969955;28;20233;-75
2021/06/08 05:20:59;;;;;;;7.30;6.67;;;20.50;96.00;;;;;;4986269;28;20210;-75
2021/06/08 05:23:26;;;;;;;7.50;6.63;;;20.60;96.00;;;;;;4986553;28;20202;-75
2021/06/08 05:25:53;;;;;;;7.10;6.60;;;20.60;96.00;;;;;;4986105;28;20217;-76
2021/06/08 05:28:20;;;;;;;6.93;6.33;;;20.60;95.90;;;;;;4986386;28;20210;-80
2021/06/08 05:30:48;;;;;;;7.90;7.20;;;20.70;95.90;;;;;;4986666;28;20252;-80
2021/06/08 05:33:19;;;;;;;8.27;7.53;;;20.70;96.20;;;;;;4986513;28;20210;-81
2021/06/08 05:35:46;;;;;;;7.60;6.93;;;20.70;96.10;;;;;;4986668;28;20194;-79
2021/06/08 05:38:12;;;;;;;7.03;6.30;;;20.80;96.20;;;;;;4985835;28;20626;-80
2021/06/08 05:40:42;;;;;;;8.13;6.73;;;20.80;96.20;;;;;;4986308;28;20313;-79
2021/06/08 05:43:08;;;;;;;7.37;6.67;;;20.80;96.10;;;;;;4981283;28;20645;-79
2021/06/08 05:45:35;;;;;;;6.97;6.33;;;20.80;96.40;;;;;;4985999;28;20207;-80
2021/06/08 05:48:02;;;;;;;7.13;6.53;;;20.80;96.50;;;;;;4985662;28;20202;-80
2021/06/08 05:50:29;;;;;;;7.65;6.20;;;20.80;96.40;;;;;;4985442;28;20202;-79
2021/06/08 05:52:55;;;;;;;6.70;6.07;;;20.80;96.60;;;;;;4985781;28;20216;-79
2021/06/08 05:55:24;;;;;;;8.63;6.87;;;20.90;96.60;;;;;;4986142;28;20202;-79
2021/06/08 05:57:51;;;;;;;6.90;6.25;;;21.00;96.60;;;;;;4985932;28;20230;-79
2021/06/08 06:00:18;;;;;;;9.10;6.43;;;21.00;96.50;;;;;;4984145;28;20211;-78
2021/06/08 06:02:46;;;;;;;7.87;7.07;;;21.10;96.80;;;;;;4985614;28;20539;-79
2021/06/08 06:05:14;;;;;;;6.70;6.10;;;21.10;96.40;;;;;;4985789;28;20226;-79
2021/06/08 06:07:41;;;;;;;6.85;6.35;;;21.20;96.40;;;;;;4985628;28;20250;-79
2021/06/08 06:10:09;;;;;;;16.50;6.80;;;21.20;96.40;;;;;;4985369;28;20236;-79
2021/06/08 06:12:37;;;;;;;7.23;6.57;;;21.30;96.30;;;;;;4985568;28;20210;-79
2021/06/08 06:15:05;;;;;;;8.40;6.23;;;21.30;96.50;;;;;;4985322;28;20249;-79
2021/06/08 06:17:34;;;;;;;7.17;5.97;;;21.30;96.40;;;;;;4985441;28;20206;-78
2021/06/08 06:20:03;;;;;;;6.57;5.97;;;21.40;96.40;;;;;;4985378;28;20210;-79
2021/06/08 06:22:30;;;;;;;7.93;6.30;;;21.40;96.30;;;;;;4985184;28;20209;-79
2021/06/08 06:24:56;;;;;;;7.20;6.50;;;21.50;96.20;;;;;;4985085;28;20214;-79
2021/06/08 06:27:23;;;;;;;6.97;6.47;;;21.50;96.30;;;;;;4985508;28;20247;-78
2021/06/08 06:29:53;;;;;;;7.82;6.93;;;21.30;96.30;;;;;;4985334;28;20206;-78
2021/06/08 06:32:20;;;;;;;7.17;6.53;;;21.20;96.70;;;;;;4985479;28;20194;-79
2021/06/08 06:34:46;;;;;;;6.90;6.15;;;21.30;96.60;;;;;;4985173;28;20693;-79
2021/06/08 06:37:14;;;;;;;10.77;6.50;;;21.40;96.80;;;;;;4985185;28;20203;-79
2021/06/08 06:39:42;;;;;;;11.18;6.68;;;21.40;96.80;;;;;;4985090;28;20264;-79
2021/06/08 06:42:12;;;;;;;22.42;7.75;;;21.50;96.60;;;;;;4985575;28;20604;-78
2021/06/08 06:44:40;;;;;;;9.93;6.50;;;21.50;96.50;;;;;;4985186;28;20218;-79
2021/06/08 06:47:07;;;;;;;9.40;6.07;;;21.60;96.40;;;;;;4985108;28;20293;-78
2021/06/08 06:49:33;;;;;;;8.10;6.23;;;21.60;96.30;;;;;;4985955;28;20657;-80
2021/06/08 06:51:59;;;;;;;9.88;6.20;;;21.70;96.10;;;;;;4985605;28;20673;-75
2021/06/08 06:54:28;;;;;;;7.38;6.32;;;21.80;96.30;;;;;;4984458;28;21145;-73
2021/06/08 06:56:56;;;;;;;7.30;6.30;;;21.90;96.20;;;;;;4984452;28;20221;-73
2021/06/08 06:59:23;;;;;;;8.02;6.13;;;21.90;96.20;;;;;;4984935;28;20230;-73
2021/06/08 07:01:50;;;;;;;6.53;5.60;;;21.90;96.00;;;;;;4985220;28;20583;-73
2021/06/08 07:04:18;;;;;;;7.63;6.32;;;21.90;95.60;;;;;;4984754;28;20230;-73
2021/06/08 07:06:45;;;;;;;6.30;5.80;;;21.80;95.60;;;;;;4984669;28;20264;-73
2021/06/08 07:09:12;;;;;;;11.70;5.65;;;21.90;95.80;;;;;;4984382;28;20348;-73
2021/06/08 07:11:40;;;;;;;5.80;5.30;;;22.00;95.80;;;;;;4984817;28;20206;-73
2021/06/08 07:14:06;;;;;;;5.85;5.35;;;22.00;95.60;;;;;;4984536;28;20217;-73
2021/06/08 07:16:33;;;;;;;7.10;6.25;;;22.10;95.30;;;;;;4984138;28;20745;-73
2021/06/08 07:18:59;;;;;;;6.13;5.53;;;22.00;95.20;;;;;;4984554;28;20238;-73
2021/06/08 07:21:25;;;;;;;6.03;4.90;;;22.00;95.00;;;;;;4984394;28;20301;-73
2021/06/08 07:23:54;;;;;;;7.75;5.45;;;22.00;94.90;;;;;;4986138;28;20661;-73
2021/06/08 07:26:22;;;;;;;7.70;4.88;;;22.10;95.10;;;;;;4988149;28;20207;-73
2021/06/08 07:28:50;;;;;;;7.97;5.28;;;22.20;94.70;;;;;;4988296;28;20289;-73
2021/06/08 07:31:25;;;;;;;6.00;4.63;;;22.20;94.50;;;;;;4985523;28;20271;-76
2021/06/08 07:33:56;;;;;;;22.88;6.03;;;22.30;94.10;;;;;;4988721;28;20193;-75
2021/06/08 07:36:28;;;;;;;13.73;5.38;;;22.40;94.40;;;;;;4987427;28;20191;-74
2021/06/08 07:38:59;;;;;;;8.40;5.00;;;22.40;94.20;;;;;;4986888;28;20253;-73
2021/06/08 07:41:34;;;;;;;9.60;5.43;;;22.50;94.10;;;;;;4985297;28;20206;-73
2021/06/08 07:44:05;;;;;;;6.32;4.65;;;22.50;93.60;;;;;;4979212;28;20854;-73
2021/06/08 07:46:33;;;;;;;6.55;4.57;;;22.60;93.10;;;;;;4987556;28;20198;-73
2021/06/08 07:49:00;;;;;;;5.95;4.50;;;22.70;92.70;;;;;;4986958;28;20194;-73
2021/06/08 07:51:29;;;;;;;4.38;3.92;;;22.70;93.00;;;;;;4987030;28;20733;-73
2021/06/08 07:53:56;;;;;;;4.82;4.00;;;22.70;92.20;;;;;;4987051;28;20210;-74
2021/06/08 07:56:23;;;;;;;5.25;4.63;;;22.80;92.20;;;;;;4987187;28;20233;-74
2021/06/08 07:58:49;;;;;;;5.55;4.53;;;22.80;92.20;;;;;;4987268;28;20229;-74
2021/06/08 08:01:20;;;;;;;4.95;4.45;;;22.90;92.10;;;;;;4987139;28;20260;-74
2021/06/08 08:03:47;;;;;;;5.07;4.55;;;23.00;92.20;;;;;;4985380;28;20350;-73
2021/06/08 08:06:15;;;;;;;6.78;4.18;;;23.00;91.60;;;;;;4986788;28;21007;-73
2021/06/08 08:08:43;;;;;;;5.22;4.38;;;23.00;92.00;;;;;;4984287;28;20230;-73
2021/06/08 08:11:11;;;;;;;4.28;3.97;;;23.00;92.10;;;;;;4986848;28;20289;-74
2021/06/08 08:13:39;;;;;;;5.53;3.75;;;23.10;90.40;;;;;;4986964;28;20290;-74
2021/06/08 08:16:07;;;;;;;4.22;3.80;;;23.20;91.00;;;;;;4986558;28;20195;-74
2021/06/08 08:18:36;;;;;;;4.57;3.70;;;23.20;91.20;;;;;;4986732;28;20363;-74
2021/06/08 08:21:04;;;;;;;3.20;3.00;;;23.30;90.20;;;;;;4984317;28;20206;-74
2021/06/08 08:23:31;;;;;;;3.70;3.40;;;23.40;90.10;;;;;;4986569;28;20676;-74
2021/06/08 08:25:59;;;;;;;3.47;3.17;;;23.40;89.10;;;;;;4986447;28;20228;-73
2021/06/08 08:28:26;;;;;;;3.60;3.35;;;23.60;88.50;;;;;;4986805;28;20264;-73
2021/06/08 08:30:52;;;;;;;6.05;3.65;;;23.60;88.10;;;;;;4986710;28;20203;-73
2021/06/08 08:33:18;;;;;;;5.03;3.25;;;23.60;87.60;;;;;;4986576;28;20225;-73
2021/06/08 08:35:46;;;;;;;5.35;3.65;;;23.70;87.00;;;;;;4985532;28;20536;-73
2021/06/08 08:38:13;;;;;;;21.63;5.00;;;23.70;85.30;;;;;;4986079;28;20218;-73
2021/06/08 08:40:40;;;;;;;5.13;3.20;;;23.80;85.90;;;;;;4986251;28;20301;-73
2021/06/08 08:43:06;;;;;;;3.08;2.90;;;23.80;84.00;;;;;;4986511;28;20202;-73
2021/06/08 08:45:32;;;;;;;3.42;3.22;;;23.80;83.50;;;;;;4986671;28;20237;-73
2021/06/08 08:47:59;;;;;;;3.53;3.20;;;24.00;84.70;;;;;;4986048;28;21005;-73
2021/06/08 08:50:27;;;;;;;6.68;3.42;;;24.00;85.30;;;;;;4986476;28;20687;-72
2021/06/08 08:53:02;;;;;;;7.35;3.25;;;24.00;86.10;;;;;;4986507;28;20217;-73
2021/06/08 08:55:30;;;;;;;4.95;3.72;;;24.10;85.50;;;;;;4986407;28;20280;-74
2021/06/08 08:57:57;;;;;;;6.15;3.60;;;24.20;86.30;;;;;;4985909;28;20237;-73
2021/06/08 09:00:26;;;;;;;3.75;3.50;;;24.20;85.60;;;;;;4986004;28;20206;-73
2021/06/08 09:02:54;;;;;;;4.25;3.85;;;24.30;86.60;;;;;;4986241;28;20203;-73
2021/06/08 09:05:20;;;;;;;5.70;3.70;;;24.40;85.10;;;;;;4985925;28;20234;-73
2021/06/08 09:07:47;;;;;;;3.97;3.78;;;24.40;85.50;;;;;;4986366;28;20257;-73
2021/06/08 09:10:14;;;;;;;4.65;3.88;;;24.50;84.90;;;;;;4985739;28;20261;-73
2021/06/08 09:12:40;;;;;;;5.90;4.13;;;24.60;86.20;;;;;;4985969;28;20228;-73
2021/06/08 09:15:08;;;;;;;4.15;3.95;;;24.60;85.00;;;;;;4986236;28;20206;-74
2021/06/08 09:17:38;;;;;;;3.92;3.63;;;24.60;83.80;;;;;;4986388;28;20210;-73
2021/06/08 09:20:06;;;;;;;5.07;3.70;;;24.70;86.20;;;;;;4985948;28;20233;-73
2021/06/08 09:22:53;;;;;;;10.40;4.20;;;24.80;87.00;;;;;;4986048;28;20210;-73
2021/06/08 09:25:40;;;;;;;8.43;4.40;;;24.80;85.80;;;;;;4985784;28;20319;-74
2021/06/08 09:28:17;;;;;;;6.18;4.38;;;24.90;86.50;;;;;;4985960;28;20213;-73
2021/06/08 09:30:44;;;;;;;4.82;4.35;;;25.00;86.10;;;;;;4986525;28;20197;-73
2021/06/08 09:33:18;;;;;;;7.75;4.82;;;25.00;85.10;;;;;;4986012;28;20267;-73
2021/06/08 09:35:49;;;;;;;4.28;3.78;;;25.00;85.00;;;;;;4985868;28;20216;-74
2021/06/08 09:38:15;;;;;;;4.45;4.05;;;25.00;84.30;;;;;;4986635;28;20234;-73
2021/06/08 09:40:43;;;;;;;8.43;4.45;;;25.10;84.10;;;;;;4986644;28;20226;-73
2021/06/08 09:43:11;;;;;;;4.25;3.88;;;25.10;85.30;;;;;;4986715;28;20207;-73
2021/06/08 09:45:42;;;;;;;5.10;4.18;;;25.00;84.60;;;;;;4986436;28;20214;-73
2021/06/08 09:48:08;;;;;;;5.57;4.10;;;25.10;84.40;;;;;;4986486;28;20210;-73
2021/06/08 09:50:36;;;;;;;4.60;3.80;;;25.10;82.50;;;;;;4986184;28;20194;-73
2021/06/08 09:53:20;;;;;;;4.60;4.20;;;25.10;83.00;;;;;;4986372;28;20214;-74
2021/06/08 09:55:55;;;;;;;4.90;3.85;;;25.20;82.90;;;;;;4985683;28;20289;-74
2021/06/08 09:58:23;;;;;;;7.32;4.07;;;25.30;83.10;;;;;;4983727;28;20228;-74
2021/06/08 10:01:04;;;;;;;4.20;3.90;;;25.30;81.00;;;;;;4984874;28;20587;-74
2021/06/08 10:03:35;;;;;;;4.10;3.80;;;25.20;80.60;;;;;;4982653;28;20218;-73
2021/06/08 10:06:05;;;;;;;3.65;3.45;;;25.30;80.90;;;;;;4985293;28;20281;-74
2021/06/08 10:08:32;;;;;;;8.82;4.55;;;25.40;82.70;;;;;;4984666;28;20246;-74
2021/06/08 10:11:01;;;;;;;4.38;4.03;;;25.50;82.30;;;;;;4985217;28;20202;-74
2021/06/08 10:13:27;;;;;;;501.48;47.03;;;25.50;81.80;;;;;;4984920;28;20206;-74
2021/06/08 10:15:56;;;;;;;55.67;9.98;;;25.60;82.70;;;;;;4983884;28;20550;-74
2021/06/08 10:18:23;;;;;;;5.63;4.07;;;25.50;81.40;;;;;;4984277;28;20226;-74
2021/06/08 10:20:50;;;;;;;4.32;3.92;;;25.40;80.60;;;;;;4984599;28;20198;-74
2021/06/08 10:23:19;;;;;;;4.65;3.85;;;25.30;80.60;;;;;;4984574;28;20210;-74
2021/06/08 10:25:45;;;;;;;5.60;4.13;;;25.40;82.40;;;;;;4984617;28;20210;-74
2021/06/08 10:28:15;;;;;;;4.28;3.90;;;25.60;82.00;;;;;;4984596;28;20225;-73
2021/06/08 10:30:42;;;;;;;4.22;3.97;;;25.80;82.20;;;;;;4984745;28;20479;-73
2021/06/08 10:33:09;;;;;;;4.28;3.92;;;26.10;81.70;;;;;;4984498;28;20210;-73
2021/06/08 10:35:36;;;;;;;4.32;4.03;;;26.20;81.20;;;;;;4984813;28;20206;-74
2021/06/08 10:38:03;;;;;;;4.25;3.85;;;26.20;82.80;;;;;;4984641;28;20206;-74
2021/06/08 10:40:30;;;;;;;6.53;4.30;;;26.40;84.20;;;;;;4984630;28;20230;-74
2021/06/08 10:42:57;;;;;;;5.78;4.35;;;26.30;80.70;;;;;;4984465;28;20239;-73
2021/06/08 10:45:33;;;;;;;4.20;3.75;;;26.10;81.70;;;;;;4985260;28;20206;-73
2021/06/08 10:48:06;;;;;;;8.35;4.47;;;26.00;82.40;;;;;;4985098;28;20202;-73
2021/06/08 10:50:34;;;;;;;4.13;3.80;;;26.00;82.40;;;;;;4985004;28;20289;-74
2021/06/08 10:53:00;;;;;;;4.15;3.85;;;26.20;82.90;;;;;;4984543;28;20700;-73
2021/06/08 10:55:33;;;;;;;4.00;3.78;;;26.40;82.30;;;;;;4984807;28;20639;-74
2021/06/08 10:57:59;;;;;;;7.00;3.83;;;26.50;82.10;;;;;;4984775;28;20241;-73
2021/06/08 11:00:41;;;;;;;4.10;3.80;;;26.50;81.80;;;;;;4988113;28;20214;-73
2021/06/08 11:03:10;;;;;;;4.20;4.00;;;26.40;82.00;;;;;;4987421;28;20244;-74
2021/06/08 11:05:49;;;;;;;7.07;3.75;;;26.60;83.00;;;;;;4987671;28;20202;-74
2021/06/08 11:08:15;;;;;;;4.40;4.10;;;26.90;83.80;;;;;;4984679;28;20203;-74
2021/06/08 11:10:57;;;;;;;4.45;3.58;;;26.90;83.30;;;;;;4987682;28;20195;-74
2021/06/08 11:13:43;;;;;;;5.40;3.78;;;26.90;83.10;;;;;;4986544;28;20205;-74
2021/06/08 11:16:34;;;;;;;6.22;4.20;;;27.00;83.60;;;;;;4984708;28;20194;-74
2021/06/08 11:19:02;;;;;;;9.05;4.47;;;26.90;84.70;;;;;;4986128;28;20225;-73
2021/06/08 11:21:29;;;;;;;6.05;4.50;;;26.70;84.30;;;;;;4987992;28;20210;-73
2021/06/08 11:23:56;;;;;;;5.20;4.47;;;26.60;84.00;;;;;;4987223;28;20222;-73
2021/06/08 11:26:47;;;;;;;4.38;3.90;;;26.50;84.40;;;;;;4988255;28;20206;-73
2021/06/08 11:29:37;;;;;;;4.75;4.35;;;26.50;85.30;;;;;;4987737;28;20202;-74
2021/06/08 11:32:05;;;;;;;4.90;4.45;;;26.50;85.40;;;;;;4987334;28;20209;-73
2021/06/08 11:34:31;;;;;;;5.03;4.63;;;26.50;85.70;;;;;;4987875;28;20913;-73
2021/06/08 11:36:57;;;;;;;5.70;4.28;;;26.60;87.10;;;;;;4987732;28;20218;-73
2021/06/08 11:39:30;;;;;;;4.43;4.20;;;26.80;85.90;;;;;;4986978;28;20241;-74
2021/06/08 11:41:57;;;;;;;4.50;4.00;;;26.90;82.90;;;;;;4987139;28;20214;-74
2021/06/08 11:44:24;;;;;;;4.90;4.47;;;26.90;83.20;;;;;;4987473;28;20238;-73
2021/06/08 11:46:55;;;;;;;4.63;4.22;;;26.80;84.10;;;;;;4987262;28;20206;-74
2021/06/08 11:49:24;;;;;;;5.20;4.10;;;26.70;85.60;;;;;;4987092;28;20202;-73
2021/06/08 11:52:05;;;;;;;15.93;5.40;;;26.80;86.00;;;;;;4987446;28;20218;-74
2021/06/08 11:54:40;;;;;;;12.98;4.43;;;26.80;86.60;;;;;;4987564;28;20203;-73
2021/06/08 11:57:08;;;;;;;18.15;5.40;;;26.90;86.70;;;;;;4987298;28;20664;-73
2021/06/08 11:59:57;;;;;;;10.45;4.63;;;27.10;86.80;;;;;;4987573;28;20287;-73
2021/06/08 12:02:32;;;;;;;16.33;5.07;;;27.40;86.20;;;;;;4987355;28;20244;-74
2021/06/08 12:05:14;;;;;;;4.45;4.15;;;27.70;85.30;;;;;;4987247;28;20877;-73
2021/06/08 12:07:45;;;;;;;6.53;4.30;;;28.00;83.80;;;;;;4987181;28;20298;-74
2021/06/08 12:10:14;;;;;;;4.15;3.85;;;28.40;84.00;;;;;;4986485;28;20238;-73
2021/06/08 12:12:47;;;;;;;4.38;3.97;;;28.70;83.30;;;;;;4987041;28;20580;-73
2021/06/08 12:15:19;;;;;;;5.82;3.90;;;29.00;83.00;;;;;;4987102;28;20275;-73
2021/06/08 12:18:12;;;;;;;4.80;3.80;;;29.30;82.80;;;;;;4987236;28;20206;-73
2021/06/08 12:20:41;;;;;;;6.13;4.30;;;29.50;81.80;;;;;;4987074;28;20203;-73
2021/06/08 12:23:09;;;;;;;4.95;4.10;;;29.80;81.60;;;;;;4987167;28;20272;-73
2021/06/08 12:25:35;;;;;;;4.80;4.05;;;30.00;80.10;;;;;;4986832;28;20661;-74
2021/06/08 12:28:08;;;;;;;4.45;4.15;;;30.10;78.10;;;;;;4986755;28;20210;-74
2021/06/08 12:30:35;;;;;;;5.10;4.75;;;30.10;76.80;;;;;;4987275;28;20241;-73
2021/06/08 12:33:03;;;;;;;4.93;4.53;;;30.20;77.40;;;;;;4986891;28;20279;-74
2021/06/08 12:35:32;;;;;;;17.35;4.72;;;30.40;77.50;;;;;;4986919;28;20206;-73
2021/06/08 12:38:14;;;;;;;9.05;4.30;;;30.50;77.70;;;;;;4986561;28;20245;-73
2021/06/08 12:40:42;;;;;;;11.70;4.22;;;30.60;76.70;;;;;;4986454;28;20579;-73
2021/06/08 12:43:08;;;;;;;5.28;4.00;;;30.80;75.40;;;;;;4986512;28;20210;-73
2021/06/08 12:45:35;;;;;;;4.28;3.85;;;30.90;75.30;;;;;;4986506;28;20213;-73
2021/06/08 12:48:03;;;;;;;4.47;3.85;;;31.00;75.20;;;;;;5000434;28;20213;-74
2021/06/08 12:50:32;;;;;;;5.93;3.60;;;31.00;75.50;;;;;;4990894;28;20636;-74
2021/06/08 12:52:59;;;;;;;4.57;3.83;;;31.10;73.30;;;;;;5006472;28;20219;-74
2021/06/08 12:55:31;;;;;;;5.35;3.65;;;31.10;73.90;;;;;;5006080;28;20232;-75
2021/06/08 12:58:02;;;;;;;4.15;3.50;;;31.20;73.10;;;;;;4995491;28;20217;-74
2021/06/08 13:00:31;;;;;;;3.90;3.70;;;31.30;74.20;;;;;;5055537;28;20215;-74
2021/06/08 13:03:00;;;;;;;26.23;4.93;;;31.00;72.40;;;;;;4990306;28;20218;-74
2021/06/08 13:05:31;;;;;;;16.88;4.20;;;30.70;71.80;;;;;;4987023;28;20210;-74
2021/06/08 13:07:58;;;;;;;4.63;3.78;;;30.50;70.80;;;;;;4987042;28;20220;-74
2021/06/08 13:10:25;;;;;;;11.32;4.07;;;30.50;71.40;;;;;;4987010;28;20627;-74
2021/06/08 13:12:54;;;;;;;4.22;3.90;;;30.60;71.70;;;;;;4987479;28;20221;-74
2021/06/08 13:15:28;;;;;;;4.07;3.78;;;30.20;71.10;;;;;;4986987;28;20207;-74
2021/06/08 13:18:07;;;;;;;3.97;3.63;;;30.00;71.40;;;;;;4987128;28;20197;-74
2021/06/08 13:20:36;;;;;;;4.22;4.00;;;30.20;72.30;;;;;;4986327;28;20230;-74
2021/06/08 13:23:02;;;;;;;4.00;3.67;;;30.50;72.40;;;;;;4987073;28;20213;-75
2021/06/08 13:25:30;;;;;;;5.60;4.28;;;30.60;70.70;;;;;;4987030;28;20206;-75
2021/06/08 13:27:57;;;;;;;4.00;3.70;;;30.50;70.40;;;;;;4986919;28;20280;-74
2021/06/08 13:30:26;;;;;;;4.53;4.15;;;30.40;71.20;;;;;;4987005;28;20214;-75
2021/06/08 13:32:57;;;;;;;11.10;5.00;;;30.10;71.30;;;;;;4987209;28;20215;-74
2021/06/08 13:35:23;;;;;;;4.25;3.95;;;29.60;70.00;;;;;;4986973;28;20221;-74
2021/06/08 13:37:53;;;;;;;5.40;4.25;;;29.20;71.70;;;;;;4986710;28;20213;-75
2021/06/08 13:40:21;;;;;;;4.72;4.32;;;29.10;72.80;;;;;;4986686;28;20283;-75
2021/06/08 13:43:04;;;;;;;4.20;4.00;;;29.00;73.40;;;;;;4986992;28;20225;-74
2021/06/08 13:45:35;;;;;;;6.40;4.38;;;29.00;73.00;;;;;;4986451;28;20645;-74
2021/06/08 13:48:19;;;;;;;4.30;4.00;;;29.20;73.70;;;;;;4986741;28;20263;-74
2021/06/08 13:50:47;;;;;;;4.05;3.80;;;29.50;74.50;;;;;;4986719;28;20206;-74
2021/06/08 13:53:18;;;;;;;4.00;3.80;;;29.60;74.10;;;;;;4986677;28;20203;-74
2021/06/08 13:55:58;;;;;;;5.95;4.10;;;29.60;74.30;;;;;;4986635;28;20306;-74